createdAt,value
2023-04-15T00:00:36.132Z,512.00
2023-04-15T00:01:36.161Z,512.00
2023-04-15T00:02:36.284Z,511.00
2023-04-15T00:03:36.472Z,509.00
2023-04-15T00:04:36.277Z,513.00
2023-04-15T00:05:36.293Z,510.00
2023-04-15T00:06:36.895Z,507.00
2023-04-15T00:07:36.392Z,510.00
2023-04-15T00:08:36.418Z,509.00
2023-04-15T00:09:36.495Z,518.00
2023-04-15T00:10:36.534Z,512.00
2023-04-15T00:11:36.622Z,509.00
2023-04-15T00:12:36.653Z,513.00
2023-04-15T00:13:36.709Z,514.00
2023-04-15T00:14:36.829Z,518.00
2023-04-15T00:15:36.822Z,510.00
2023-04-15T00:16:36.886Z,514.00
2023-04-15T00:17:36.971Z,510.00
2023-04-15T00:18:36.978Z,507.00
2023-04-15T00:19:37.082Z,512.00
2023-04-15T00:20:37.158Z,510.00
2023-04-15T00:21:37.145Z,514.00
2023-04-15T00:22:37.180Z,512.00
2023-04-15T00:23:37.250Z,509.00
2023-04-15T00:24:37.287Z,518.00
2023-04-15T00:25:37.347Z,515.00
2023-04-15T00:26:37.414Z,509.00
2023-04-15T00:27:37.472Z,507.00
2023-04-15T00:28:37.488Z,510.00
2023-04-15T00:29:37.581Z,514.00
2023-04-15T00:30:37.707Z,517.00
2023-04-15T00:31:37.667Z,514.00
2023-04-15T00:32:37.767Z,514.00
2023-04-15T00:33:37.755Z,510.00
2023-04-15T00:34:37.833Z,520.00
2023-04-15T00:35:37.944Z,514.00
2023-04-15T00:36:37.959Z,511.00
2023-04-15T00:37:37.971Z,506.00
2023-04-15T00:38:38.045Z,513.00
2023-04-15T00:39:38.094Z,512.00
2023-04-15T00:40:38.154Z,510.00
2023-04-15T00:41:38.182Z,519.00
2023-04-15T00:42:38.236Z,510.00
2023-04-15T00:43:38.298Z,514.00
2023-04-15T00:44:38.406Z,513.00
2023-04-15T00:45:38.449Z,513.00
2023-04-15T00:46:38.483Z,512.00
2023-04-15T00:47:38.573Z,509.00
2023-04-15T00:48:38.582Z,518.00
2023-04-15T00:49:38.659Z,510.00
2023-04-15T00:50:38.724Z,512.00
2023-04-15T00:51:38.778Z,514.00
2023-04-15T00:52:38.840Z,518.00
2023-04-15T00:53:38.881Z,512.00
2023-04-15T00:54:38.976Z,518.00
2023-04-15T00:55:39.016Z,512.00
2023-04-15T00:56:39.023Z,513.00
2023-04-15T00:57:39.082Z,516.00
2023-04-15T00:58:39.118Z,513.00
2023-04-15T00:59:39.177Z,519.00
2023-04-15T01:00:39.258Z,504.00
2023-04-15T01:01:39.253Z,514.00
2023-04-15T01:02:39.601Z,515.00
2023-04-15T01:03:39.506Z,510.00
2023-04-15T01:04:39.465Z,516.00
2023-04-15T01:05:39.518Z,518.00
2023-04-15T01:06:39.549Z,522.00
2023-04-15T01:07:39.641Z,521.00
2023-04-15T01:08:39.692Z,521.00
2023-04-15T01:09:39.715Z,523.00
2023-04-15T01:10:39.782Z,519.00
2023-04-15T01:11:39.888Z,521.00
2023-04-15T01:12:39.920Z,517.00
2023-04-15T01:13:39.963Z,524.00
2023-04-15T01:14:40.023Z,520.00
2023-04-15T01:15:40.088Z,519.00
2023-04-15T01:16:40.160Z,520.00
2023-04-15T01:17:40.188Z,523.00
2023-04-15T01:18:40.255Z,517.00
2023-04-15T01:19:40.287Z,513.00
2023-04-15T01:20:40.348Z,512.00
2023-04-15T01:21:40.438Z,517.00
2023-04-15T01:22:40.458Z,507.00
2023-04-15T01:23:40.512Z,512.00
2023-04-15T01:24:40.589Z,515.00
2023-04-15T01:25:40.627Z,513.00
2023-04-15T01:26:40.989Z,521.00
2023-04-15T01:27:40.740Z,513.00
2023-04-15T01:28:40.822Z,514.00
2023-04-15T01:29:40.884Z,514.00
2023-04-15T01:30:40.894Z,517.00
2023-04-15T01:31:40.976Z,514.00
2023-04-15T01:32:41.054Z,516.00
2023-04-15T01:33:41.060Z,522.00
2023-04-15T01:34:41.109Z,517.00
2023-04-15T01:35:41.187Z,516.00
2023-04-15T01:36:41.248Z,515.00
2023-04-15T01:37:41.288Z,519.00
2023-04-15T01:38:41.304Z,519.00
2023-04-15T01:39:41.373Z,522.00
2023-04-15T01:40:41.462Z,516.00
2023-04-15T01:41:41.496Z,519.00
2023-04-15T01:42:41.559Z,520.00
2023-04-15T01:43:41.637Z,514.00
2023-04-15T01:44:41.703Z,525.00
2023-04-15T01:45:41.724Z,519.00
2023-04-15T01:46:41.812Z,515.00
2023-04-15T01:47:41.943Z,518.00
2023-04-15T01:48:41.905Z,518.00
2023-04-15T01:49:41.983Z,521.00
2023-04-15T01:50:42.047Z,522.00
2023-04-15T01:51:42.102Z,517.00
2023-04-15T01:52:42.311Z,509.00
2023-04-15T01:53:42.203Z,514.00
2023-04-15T01:54:42.273Z,510.00
2023-04-15T01:55:42.354Z,519.00
2023-04-15T01:56:42.424Z,513.00
2023-04-15T01:57:42.441Z,522.00
2023-04-15T01:58:42.481Z,514.00
2023-04-15T01:59:42.582Z,512.00
2023-04-15T02:00:42.675Z,523.00
2023-04-15T02:01:42.695Z,514.00
2023-04-15T02:02:42.881Z,512.00
2023-04-15T02:03:42.949Z,517.00
2023-04-15T02:04:42.876Z,515.00
2023-04-15T02:05:42.922Z,515.00
2023-04-15T02:06:42.963Z,513.00
2023-04-15T02:07:43.083Z,518.00
2023-04-15T02:08:43.090Z,516.00
2023-04-15T02:09:43.168Z,510.00
2023-04-15T02:10:43.269Z,513.00
2023-04-15T02:11:43.312Z,507.00
2023-04-15T02:12:43.383Z,514.00
2023-04-15T02:13:43.406Z,504.00
2023-04-15T02:14:43.469Z,507.00
2023-04-15T02:15:43.524Z,513.00
2023-04-15T02:16:43.611Z,514.00
2023-04-15T02:17:43.680Z,510.00
2023-04-15T02:18:43.741Z,513.00
2023-04-15T02:19:43.804Z,510.00
2023-04-15T02:20:43.853Z,504.00
2023-04-15T02:21:43.904Z,508.00
2023-04-15T02:22:43.986Z,504.00
2023-04-15T02:23:44.081Z,511.00
2023-04-15T02:24:44.076Z,508.00
2023-04-15T02:25:53.812Z,515.00
2023-04-15T02:26:45.152Z,516.00
2023-04-15T02:27:44.153Z,516.00
2023-04-15T02:28:44.146Z,517.00
2023-04-15T02:29:44.117Z,514.00
2023-04-15T02:30:44.148Z,517.00
2023-04-15T02:31:44.180Z,511.00
2023-04-15T02:32:44.135Z,520.00
2023-04-15T02:33:44.138Z,519.00
2023-04-15T02:34:44.098Z,521.00
2023-04-15T02:35:44.109Z,518.00
2023-04-15T02:36:44.223Z,513.00
2023-04-15T02:37:44.240Z,517.00
2023-04-15T02:38:44.318Z,518.00
2023-04-15T02:39:44.387Z,514.00
2023-04-15T02:40:44.433Z,513.00
2023-04-15T02:41:44.512Z,522.00
2023-04-15T02:42:44.564Z,517.00
2023-04-15T02:43:44.653Z,515.00
2023-04-15T02:44:44.698Z,518.00
2023-04-15T02:45:44.812Z,516.00
2023-04-15T02:46:44.845Z,511.00
2023-04-15T02:47:44.920Z,512.00
2023-04-15T02:48:44.952Z,519.00
2023-04-15T02:49:44.989Z,513.00
2023-04-15T02:50:45.082Z,510.00
2023-04-15T02:51:45.140Z,518.00
2023-04-15T02:52:45.188Z,516.00
2023-04-15T02:53:45.235Z,511.00
2023-04-15T02:54:45.292Z,510.00
2023-04-15T02:55:45.340Z,511.00
2023-04-15T02:56:45.400Z,512.00
2023-04-15T02:57:45.450Z,517.00
2023-04-15T02:58:45.545Z,513.00
2023-04-15T02:59:45.578Z,515.00
2023-04-15T03:00:45.664Z,516.00
2023-04-15T03:01:45.800Z,514.00
2023-04-15T03:02:45.838Z,507.00
2023-04-15T03:03:45.851Z,510.00
2023-04-15T03:04:45.881Z,510.00
2023-04-15T03:05:45.994Z,506.00
2023-04-15T03:06:46.021Z,512.00
2023-04-15T03:07:46.039Z,505.00
2023-04-15T03:08:46.122Z,504.00
2023-04-15T03:09:46.168Z,504.00
2023-04-15T03:10:46.238Z,513.00
2023-04-15T03:11:46.267Z,515.00
2023-04-15T03:12:46.342Z,502.00
2023-04-15T03:13:46.360Z,513.00
2023-04-15T03:14:46.453Z,510.00
2023-04-15T03:15:46.506Z,509.00
2023-04-15T03:16:46.510Z,509.00
2023-04-15T03:17:46.613Z,515.00
2023-04-15T03:18:46.622Z,514.00
2023-04-15T03:19:46.685Z,508.00
2023-04-15T03:20:46.829Z,514.00
2023-04-15T03:21:46.803Z,509.00
2023-04-15T03:22:46.861Z,513.00
2023-04-15T03:23:47.004Z,505.00
2023-04-15T03:24:46.987Z,516.00
2023-04-15T03:25:47.050Z,512.00
2023-04-15T03:26:47.075Z,511.00
2023-04-15T03:27:47.153Z,510.00
2023-04-15T03:28:47.193Z,508.00
2023-04-15T03:29:47.266Z,516.00
2023-04-15T03:30:47.277Z,507.00
2023-04-15T03:31:47.328Z,513.00
2023-04-15T03:32:47.531Z,507.00
2023-04-15T03:33:47.442Z,506.00
2023-04-15T03:34:47.501Z,512.00
2023-04-15T03:35:47.569Z,516.00
2023-04-15T03:36:47.599Z,503.00
2023-04-15T03:37:47.620Z,508.00
2023-04-15T03:38:47.692Z,507.00
2023-04-15T03:39:47.712Z,510.00
2023-04-15T03:40:47.747Z,505.00
2023-04-15T03:41:47.820Z,507.00
2023-04-15T03:42:47.897Z,502.00
2023-04-15T03:43:47.936Z,502.00
2023-04-15T03:44:48.033Z,507.00
2023-04-15T03:45:48.050Z,504.00
2023-04-15T03:46:48.203Z,508.00
2023-04-15T03:47:48.131Z,503.00
2023-04-15T03:48:48.182Z,503.00
2023-04-15T03:49:48.239Z,510.00
2023-04-15T03:50:48.267Z,509.00
2023-04-15T03:51:48.405Z,506.00
2023-04-15T03:52:49.602Z,505.00
2023-04-15T03:53:48.385Z,512.00
2023-04-15T03:54:48.362Z,512.00
2023-04-15T03:55:48.339Z,507.00
2023-04-15T03:56:48.323Z,510.00
2023-04-15T03:57:48.342Z,509.00
2023-04-15T03:58:48.314Z,509.00
2023-04-15T03:59:48.357Z,504.00
2023-04-15T04:00:48.318Z,507.00
2023-04-15T04:01:48.371Z,508.00
2023-04-15T04:02:48.654Z,502.00
2023-04-15T04:03:48.396Z,514.00
2023-04-15T04:04:48.382Z,510.00
2023-04-15T04:05:48.275Z,503.00
2023-04-15T04:06:48.253Z,507.00
2023-04-15T04:07:48.269Z,506.00
2023-04-15T04:08:48.239Z,500.00
2023-04-15T04:09:48.260Z,500.00
2023-04-15T04:10:48.228Z,509.00
2023-04-15T04:11:48.230Z,506.00
2023-04-15T04:12:48.225Z,504.00
2023-04-15T04:13:48.218Z,505.00
2023-04-15T04:14:48.223Z,503.00
2023-04-15T04:15:48.289Z,500.00
2023-04-15T04:16:48.214Z,502.00
2023-04-15T04:17:48.302Z,504.00
2023-04-15T04:18:48.157Z,506.00
2023-04-15T04:19:48.217Z,507.00
2023-04-15T04:20:48.179Z,511.00
2023-04-15T04:21:48.193Z,508.00
2023-04-15T04:22:48.173Z,510.00
2023-04-15T04:23:48.174Z,508.00
2023-04-15T04:24:48.148Z,505.00
2023-04-15T04:25:48.126Z,506.00
2023-04-15T04:26:48.111Z,508.00
2023-04-15T04:27:48.120Z,508.00
2023-04-15T04:28:48.103Z,508.00
2023-04-15T04:29:48.132Z,508.00
2023-04-15T04:30:48.138Z,508.00
2023-04-15T04:31:48.148Z,511.00
2023-04-15T04:32:48.193Z,504.00
2023-04-15T04:33:48.134Z,503.00
2023-04-15T04:34:48.167Z,505.00
2023-04-15T04:35:48.218Z,508.00
2023-04-15T04:36:48.268Z,502.00
2023-04-15T04:37:48.321Z,508.00
2023-04-15T04:38:48.337Z,509.00
2023-04-15T04:39:48.385Z,502.00
2023-04-15T04:40:48.408Z,505.00
2023-04-15T04:41:48.456Z,507.00
2023-04-15T04:42:48.555Z,504.00
2023-04-15T04:43:48.588Z,503.00
2023-04-15T04:44:48.641Z,501.00
2023-04-15T04:45:48.740Z,508.00
2023-04-15T04:46:48.794Z,508.00
2023-04-15T04:47:48.847Z,507.00
2023-04-15T04:48:48.880Z,502.00
2023-04-15T04:49:48.961Z,507.00
2023-04-15T04:50:49.021Z,504.00
2023-04-15T04:51:49.064Z,503.00
2023-04-15T04:52:49.126Z,503.00
2023-04-15T04:53:49.188Z,502.00
2023-04-15T04:54:49.303Z,503.00
2023-04-15T04:55:49.387Z,506.00
2023-04-15T04:56:49.365Z,502.00
2023-04-15T04:57:49.438Z,503.00
2023-04-15T04:58:49.492Z,500.00
2023-04-15T04:59:49.549Z,502.00
2023-04-15T05:00:49.604Z,504.00
2023-04-15T05:01:49.696Z,503.00
2023-04-15T05:02:49.773Z,504.00
2023-04-15T05:03:49.848Z,505.00
2023-04-15T05:04:49.900Z,508.00
2023-04-15T05:05:49.866Z,509.00
2023-04-15T05:06:49.970Z,505.00
2023-04-15T05:07:50.017Z,506.00
2023-04-15T05:08:50.065Z,506.00
2023-04-15T05:09:50.129Z,502.00
2023-04-15T05:10:50.211Z,507.00
2023-04-15T05:11:50.251Z,506.00
2023-04-15T05:12:50.313Z,502.00
2023-04-15T05:13:50.362Z,501.00
2023-04-15T05:14:50.468Z,509.00
2023-04-15T05:15:50.498Z,510.00
2023-04-15T05:16:50.548Z,516.00
2023-04-15T05:17:50.737Z,511.00
2023-04-15T05:18:50.685Z,510.00
2023-04-15T05:19:50.744Z,512.00
2023-04-15T05:20:50.860Z,515.00
2023-04-15T05:21:50.871Z,512.00
2023-04-15T05:22:50.901Z,510.00
2023-04-15T05:23:50.972Z,510.00
2023-04-15T05:24:51.061Z,513.00
2023-04-15T05:25:51.120Z,513.00
2023-04-15T05:26:51.148Z,516.00
2023-04-15T05:27:51.218Z,519.00
2023-04-15T05:28:51.282Z,513.00
2023-04-15T05:29:51.340Z,509.00
2023-04-15T05:30:51.446Z,513.00
2023-04-15T05:31:51.468Z,509.00
2023-04-15T05:32:51.582Z,505.00
2023-04-15T05:33:51.607Z,505.00
2023-04-15T05:34:51.681Z,511.00
2023-04-15T05:35:51.747Z,500.00
2023-04-15T05:36:51.784Z,507.00
2023-04-15T05:37:51.824Z,510.00
2023-04-15T05:38:51.865Z,504.00
2023-04-15T05:39:51.943Z,507.00
2023-04-15T05:40:51.971Z,505.00
2023-04-15T05:41:52.015Z,507.00
2023-04-15T05:42:52.106Z,503.00
2023-04-15T05:43:52.157Z,503.00
2023-04-15T05:44:52.185Z,503.00
2023-04-15T05:45:52.272Z,501.00
2023-04-15T05:46:52.307Z,508.00
2023-04-15T05:47:52.424Z,509.00
2023-04-15T05:48:53.808Z,509.00
2023-04-15T05:49:52.467Z,507.00
2023-04-15T05:50:52.537Z,504.00
2023-04-15T05:51:52.618Z,503.00
2023-04-15T05:52:52.644Z,505.00
2023-04-15T05:53:52.717Z,504.00
2023-04-15T05:54:52.793Z,505.00
2023-04-15T05:55:52.821Z,502.00
2023-04-15T05:56:52.895Z,505.00
2023-04-15T05:57:52.965Z,508.00
2023-04-15T05:58:53.909Z,501.00
2023-04-15T05:59:53.030Z,500.00
2023-04-15T06:00:53.092Z,511.00
2023-04-15T06:01:53.213Z,508.00
2023-04-15T06:02:53.340Z,507.00
2023-04-15T06:03:53.382Z,508.00
2023-04-15T06:04:53.343Z,509.00
2023-04-15T06:05:53.395Z,506.00
2023-04-15T06:06:53.428Z,506.00
2023-04-15T06:07:53.476Z,505.00
2023-04-15T06:08:53.533Z,500.00
2023-04-15T06:09:53.621Z,502.00
2023-04-15T06:10:53.653Z,503.00
2023-04-15T06:11:53.710Z,505.00
2023-04-15T06:12:53.759Z,505.00
2023-04-15T06:13:53.829Z,502.00
2023-04-15T06:14:53.916Z,502.00
2023-04-15T06:15:53.993Z,502.00
2023-04-15T06:16:53.997Z,499.00
2023-04-15T06:17:54.151Z,509.00
2023-04-15T06:18:54.115Z,509.00
2023-04-15T06:19:54.187Z,509.00
2023-04-15T06:20:54.311Z,502.00
2023-04-15T06:21:54.371Z,502.00
2023-04-15T06:22:54.367Z,501.00
2023-04-15T06:23:54.448Z,502.00
2023-04-15T06:24:54.457Z,504.00
2023-04-15T06:25:54.519Z,505.00
2023-04-15T06:26:54.573Z,507.00
2023-04-15T06:27:54.663Z,503.00
2023-04-15T06:28:54.726Z,508.00
2023-04-15T06:29:54.779Z,501.00
2023-04-15T06:30:54.800Z,505.00
2023-04-15T06:31:54.915Z,506.00
2023-04-15T06:32:54.968Z,508.00
2023-04-15T06:33:54.996Z,509.00
2023-04-15T06:34:55.083Z,506.00
2023-04-15T06:35:55.084Z,502.00
2023-04-15T06:36:55.131Z,501.00
2023-04-15T06:37:55.151Z,502.00
2023-04-15T06:38:55.216Z,502.00
2023-04-15T06:39:55.289Z,508.00
2023-04-15T06:40:55.281Z,507.00
2023-04-15T06:41:55.375Z,512.00
2023-04-15T06:42:55.418Z,512.00
2023-04-15T06:43:55.431Z,504.00
2023-04-15T06:44:55.500Z,505.00
2023-04-15T06:45:55.597Z,509.00
2023-04-15T06:46:55.602Z,504.00
2023-04-15T06:47:55.767Z,501.00
2023-04-15T06:48:55.707Z,504.00
2023-04-15T06:49:55.759Z,510.00
2023-04-15T06:50:55.786Z,518.00
2023-04-15T06:51:55.858Z,518.00
2023-04-15T06:52:55.911Z,518.00
2023-04-15T06:53:55.970Z,518.00
2023-04-15T06:54:56.029Z,520.00
2023-04-15T06:55:56.049Z,524.00
2023-04-15T06:56:56.106Z,524.00
2023-04-15T06:57:56.153Z,526.00
2023-04-15T06:58:56.217Z,522.00
2023-04-15T06:59:56.281Z,534.00
2023-04-15T07:00:56.332Z,525.00
2023-04-15T07:01:56.389Z,530.00
2023-04-15T07:02:56.536Z,528.00
2023-04-15T07:03:56.538Z,532.00
2023-04-15T07:04:56.580Z,535.00
2023-04-15T07:05:56.631Z,538.00
2023-04-15T07:06:56.706Z,536.00
2023-04-15T07:07:56.773Z,540.00
2023-04-15T07:08:56.801Z,538.00
2023-04-15T07:09:56.880Z,531.00
2023-04-15T07:10:56.947Z,531.00
2023-04-15T07:11:56.969Z,530.00
2023-04-15T07:12:57.075Z,534.00
2023-04-15T07:13:57.118Z,534.00
2023-04-15T07:14:57.172Z,536.00
2023-04-15T07:15:57.219Z,538.00
2023-04-15T07:16:57.335Z,537.00
2023-04-15T07:17:57.424Z,531.00
2023-04-15T07:18:57.450Z,528.00
2023-04-15T07:19:57.517Z,537.00
2023-04-15T07:20:57.569Z,539.00
2023-04-15T07:21:57.589Z,530.00
2023-04-15T07:22:57.686Z,529.00
2023-04-15T07:23:57.734Z,533.00
2023-04-15T07:24:57.803Z,531.00
2023-04-15T07:25:57.880Z,534.00
2023-04-15T07:26:59.420Z,535.00
2023-04-15T07:27:57.938Z,541.00
2023-04-15T07:28:57.894Z,546.00
2023-04-15T07:29:57.895Z,537.00
2023-04-15T07:30:57.907Z,532.00
2023-04-15T07:31:57.901Z,544.00
2023-04-15T07:32:57.908Z,543.00
2023-04-15T07:33:57.864Z,544.00
2023-04-15T07:34:57.864Z,555.00
2023-04-15T07:35:57.845Z,549.00
2023-04-15T07:36:57.873Z,541.00
2023-04-15T07:37:57.830Z,545.00
2023-04-15T07:38:57.830Z,546.00
2023-04-15T07:39:57.839Z,550.00
2023-04-15T07:40:57.814Z,553.00
2023-04-15T07:41:57.834Z,545.00
2023-04-15T07:42:57.945Z,546.00
2023-04-15T07:43:57.797Z,548.00
2023-04-15T07:44:57.799Z,553.00
2023-04-15T07:45:57.832Z,554.00
2023-04-15T07:46:57.806Z,552.00
2023-04-15T07:47:57.965Z,551.00
2023-04-15T07:48:57.788Z,549.00
2023-04-15T07:49:57.793Z,548.00
2023-04-15T07:50:57.778Z,550.00
2023-04-15T07:51:57.772Z,545.00
2023-04-15T07:52:57.773Z,550.00
2023-04-15T07:53:57.765Z,555.00
2023-04-15T07:54:57.751Z,547.00
2023-04-15T07:55:57.773Z,545.00
2023-04-15T07:56:57.728Z,542.00
2023-04-15T07:57:57.727Z,540.00
2023-04-15T07:58:57.736Z,551.00
2023-04-15T07:59:57.706Z,543.00
2023-04-15T08:00:57.703Z,550.00
2023-04-15T08:01:57.887Z,546.00
2023-04-15T08:02:57.806Z,549.00
2023-04-15T08:03:57.884Z,539.00
2023-04-15T08:04:57.701Z,539.00
2023-04-15T08:05:57.670Z,551.00
2023-04-15T08:06:57.672Z,552.00
2023-04-15T08:07:57.657Z,546.00
2023-04-15T08:08:57.769Z,543.00
2023-04-15T08:09:57.638Z,541.00
2023-04-15T08:10:57.651Z,545.00
2023-04-15T08:11:57.623Z,550.00
2023-04-15T08:12:57.644Z,547.00
2023-04-15T08:13:57.695Z,545.00
2023-04-15T08:14:57.731Z,547.00
2023-04-15T08:15:57.815Z,546.00
2023-04-15T08:16:57.851Z,548.00
2023-04-15T08:17:57.929Z,540.00
2023-04-15T08:18:58.020Z,537.00
2023-04-15T08:19:57.993Z,532.00
2023-04-15T08:20:58.036Z,530.00
2023-04-15T08:21:58.089Z,525.00
2023-04-15T08:22:58.169Z,523.00
2023-04-15T08:23:58.206Z,522.00
2023-04-15T08:24:58.272Z,520.00
2023-04-15T08:25:58.357Z,524.00
2023-04-15T08:26:58.386Z,517.00
2023-04-15T08:27:58.448Z,519.00
2023-04-15T08:28:58.494Z,520.00
2023-04-15T08:29:58.579Z,522.00
2023-04-15T08:30:58.596Z,522.00
2023-04-15T08:31:58.709Z,517.00
2023-04-15T08:32:58.788Z,509.00
2023-04-15T08:33:58.794Z,510.00
2023-04-15T08:34:58.845Z,510.00
2023-04-15T08:35:58.900Z,511.00
2023-04-15T08:36:59.586Z,507.00
2023-04-15T08:37:59.009Z,506.00
2023-04-15T08:38:59.096Z,504.00
2023-04-15T08:39:59.143Z,503.00
2023-04-15T08:40:59.202Z,514.00
2023-04-15T08:41:59.254Z,521.00
2023-04-15T08:42:59.303Z,522.00
2023-04-15T08:43:59.373Z,526.00
2023-04-15T08:44:59.432Z,534.00
2023-04-15T08:45:59.490Z,528.00
2023-04-15T08:46:59.590Z,529.00
2023-04-15T08:47:59.642Z,525.00
2023-04-15T08:48:59.892Z,523.00
2023-04-15T08:49:59.711Z,528.00
2023-04-15T08:50:59.785Z,522.00
2023-04-15T08:51:59.843Z,525.00
2023-04-15T08:52:59.877Z,525.00
2023-04-15T08:54:00.006Z,530.00
2023-04-15T08:54:59.981Z,536.00
2023-04-15T08:56:00.081Z,539.00
2023-04-15T08:57:00.135Z,531.00
2023-04-15T08:58:00.185Z,532.00
2023-04-15T08:59:00.584Z,529.00
2023-04-15T09:00:01.344Z,529.00
2023-04-15T09:01:00.406Z,533.00
2023-04-15T09:02:00.537Z,539.00
2023-04-15T09:03:00.552Z,533.00
2023-04-15T09:04:00.615Z,533.00
2023-04-15T09:05:00.625Z,526.00
2023-04-15T09:06:00.693Z,525.00
2023-04-15T09:07:00.732Z,524.00
2023-04-15T09:08:00.907Z,524.00
2023-04-15T09:09:01.056Z,527.00
2023-04-15T09:10:00.945Z,524.00
2023-04-15T09:11:00.973Z,529.00
2023-04-15T09:12:01.054Z,530.00
2023-04-15T09:13:01.119Z,522.00
2023-04-15T09:14:01.143Z,534.00
2023-04-15T09:15:01.219Z,524.00
2023-04-15T09:16:01.288Z,534.00
2023-04-15T09:17:01.474Z,534.00
2023-04-15T09:18:01.492Z,533.00
2023-04-15T09:19:01.683Z,533.00
2023-04-15T09:20:01.568Z,530.00
2023-04-15T09:21:01.620Z,536.00
2023-04-15T09:22:01.685Z,534.00
2023-04-15T09:23:01.738Z,529.00
2023-04-15T09:24:02.152Z,529.00
2023-04-15T09:25:01.888Z,535.00
2023-04-15T09:26:01.930Z,531.00
2023-04-15T09:27:01.985Z,531.00
2023-04-15T09:28:02.051Z,537.00
2023-04-15T09:29:02.084Z,535.00
2023-04-15T09:30:02.214Z,529.00
2023-04-15T09:31:02.237Z,538.00
2023-04-15T09:32:02.274Z,536.00
2023-04-15T09:33:02.523Z,538.00
2023-04-15T09:34:02.563Z,545.00
2023-04-15T09:35:02.447Z,540.00
2023-04-15T09:36:02.510Z,532.00
2023-04-15T09:37:03.177Z,541.00
2023-04-15T09:38:02.673Z,529.00
2023-04-15T09:39:02.720Z,537.00
2023-04-15T09:40:02.774Z,545.00
2023-04-15T09:41:02.836Z,543.00
2023-04-15T09:42:02.877Z,543.00
2023-04-15T09:43:02.957Z,545.00
2023-04-15T09:44:03.131Z,545.00
2023-04-15T09:45:03.072Z,547.00
2023-04-15T09:46:03.199Z,555.00
2023-04-15T09:47:03.183Z,552.00
2023-04-15T09:48:03.298Z,554.00
2023-04-15T09:49:03.303Z,560.00
2023-04-15T09:50:03.462Z,560.00
2023-04-15T09:51:03.385Z,560.00
2023-04-15T09:52:06.170Z,561.00
2023-04-15T09:53:03.437Z,565.00
2023-04-15T09:54:03.607Z,563.00
2023-04-15T09:55:03.440Z,572.00
2023-04-15T09:56:03.473Z,573.00
2023-04-15T09:57:03.416Z,578.00
2023-04-15T09:58:03.388Z,571.00
2023-04-15T09:59:03.389Z,568.00
2023-04-15T10:00:03.423Z,571.00
2023-04-15T10:01:03.405Z,575.00
2023-04-15T10:02:03.437Z,581.00
2023-04-15T10:03:03.531Z,574.00
2023-04-15T10:04:03.609Z,576.00
2023-04-15T10:05:03.387Z,583.00
2023-04-15T10:06:03.359Z,581.00
2023-04-15T10:07:03.352Z,580.00
2023-04-15T10:08:03.336Z,592.00
2023-04-15T10:09:03.339Z,588.00
2023-04-15T10:10:03.330Z,598.00
2023-04-15T10:11:03.373Z,601.00
2023-04-15T10:12:03.312Z,598.00
2023-04-15T10:13:03.312Z,596.00
2023-04-15T10:14:03.577Z,601.00
2023-04-15T10:15:03.318Z,604.00
2023-04-15T10:16:03.329Z,597.00
2023-04-15T10:17:03.302Z,594.00
2023-04-15T10:18:03.334Z,602.00
2023-04-15T10:19:03.260Z,608.00
2023-04-15T10:20:03.240Z,606.00
2023-04-15T10:21:03.245Z,610.00
2023-04-15T10:22:03.253Z,620.00
2023-04-15T10:23:03.237Z,602.00
2023-04-15T10:24:03.404Z,606.00
2023-04-15T10:25:03.300Z,617.00
2023-04-15T10:26:03.258Z,609.00
2023-04-15T10:27:03.196Z,606.00
2023-04-15T10:28:03.250Z,605.00
2023-04-15T10:29:03.201Z,618.00
2023-04-15T10:30:03.198Z,618.00
2023-04-15T10:31:03.222Z,610.00
2023-04-15T10:32:03.264Z,617.00
2023-04-15T10:33:03.270Z,610.00
2023-04-15T10:34:03.421Z,607.00
2023-04-15T10:35:03.400Z,607.00
2023-04-15T10:36:03.447Z,605.00
2023-04-15T10:37:03.563Z,602.00
2023-04-15T10:38:03.542Z,600.00
2023-04-15T10:39:03.596Z,613.00
2023-04-15T10:40:03.574Z,615.00
2023-04-15T10:41:03.713Z,613.00
2023-04-15T10:42:03.664Z,617.00
2023-04-15T10:43:03.691Z,613.00
2023-04-15T10:44:04.175Z,618.00
2023-04-15T10:45:04.703Z,618.00
2023-04-15T10:46:03.788Z,615.00
2023-04-15T10:47:03.717Z,619.00
2023-04-15T10:48:04.002Z,617.00
2023-04-15T10:49:03.722Z,614.00
2023-04-15T10:50:03.729Z,623.00
2023-04-15T10:51:03.684Z,621.00
2023-04-15T10:52:03.698Z,625.00
2023-04-15T10:53:03.690Z,622.00
2023-04-15T10:54:03.668Z,625.00
2023-04-15T10:55:03.682Z,622.00
2023-04-15T10:56:03.645Z,624.00
2023-04-15T10:57:03.673Z,626.00
2023-04-15T10:58:03.660Z,624.00
2023-04-15T10:59:03.688Z,633.00
2023-04-15T11:00:03.729Z,639.00
2023-04-15T11:01:03.791Z,639.00
2023-04-15T11:02:03.908Z,635.00
2023-04-15T11:03:03.897Z,634.00
2023-04-15T11:04:04.160Z,628.00
2023-04-15T11:05:03.850Z,632.00
2023-04-15T11:06:03.887Z,629.00
2023-04-15T11:07:04.015Z,629.00
2023-04-15T11:08:03.951Z,638.00
2023-04-15T11:09:03.991Z,638.00
2023-04-15T11:10:04.007Z,635.00
2023-04-15T11:11:04.054Z,635.00
2023-04-15T11:12:04.081Z,637.00
2023-04-15T11:13:04.150Z,631.00
2023-04-15T11:14:04.363Z,641.00
2023-04-15T11:15:04.171Z,643.00
2023-04-15T11:16:04.291Z,637.00
2023-04-15T11:17:04.266Z,635.00
2023-04-15T11:18:04.293Z,639.00
2023-04-15T11:19:04.333Z,639.00
2023-04-15T11:20:04.324Z,643.00
2023-04-15T11:21:04.366Z,640.00
2023-04-15T11:22:04.412Z,642.00
2023-04-15T11:23:14.152Z,637.00
2023-04-15T11:24:05.762Z,638.00
2023-04-15T11:25:04.425Z,638.00
2023-04-15T11:26:04.418Z,637.00
2023-04-15T11:27:04.436Z,638.00
2023-04-15T11:28:04.407Z,647.00
2023-04-15T11:29:04.676Z,644.00
2023-04-15T11:30:04.366Z,640.00
2023-04-15T11:31:04.393Z,644.00
2023-04-15T11:32:04.447Z,644.00
2023-04-15T11:33:04.418Z,644.00
2023-04-15T11:34:04.409Z,642.00
2023-04-15T11:35:04.343Z,644.00
2023-04-15T11:36:04.372Z,640.00
2023-04-15T11:37:04.360Z,642.00
2023-04-15T11:38:04.313Z,646.00
2023-04-15T11:39:04.304Z,650.00
2023-04-15T11:40:04.319Z,653.00
2023-04-15T11:41:04.328Z,647.00
2023-04-15T11:42:04.302Z,644.00
2023-04-15T11:43:04.317Z,644.00
2023-04-15T11:44:04.508Z,654.00
2023-04-15T11:45:05.178Z,653.00
2023-04-15T11:46:04.338Z,649.00
2023-04-15T11:47:04.319Z,652.00
2023-04-15T11:48:04.351Z,654.00
2023-04-15T11:49:04.387Z,652.00
2023-04-15T11:50:04.382Z,649.00
2023-04-15T11:51:04.440Z,654.00
2023-04-15T11:52:04.481Z,655.00
2023-04-15T11:53:06.902Z,646.00
2023-04-15T11:54:04.752Z,657.00
2023-04-15T11:55:04.503Z,655.00
2023-04-15T11:56:04.501Z,653.00
2023-04-15T11:57:04.504Z,659.00
2023-04-15T11:58:04.476Z,659.00
2023-04-15T11:59:04.448Z,660.00
2023-04-15T12:00:04.465Z,656.00
2023-04-15T12:01:04.427Z,652.00
2023-04-15T12:02:04.492Z,656.00
2023-04-15T12:03:04.512Z,663.00
2023-04-15T12:04:05.050Z,663.00
2023-04-15T12:05:04.403Z,656.00
2023-04-15T12:06:04.435Z,656.00
2023-04-15T12:07:04.395Z,651.00
2023-04-15T12:08:04.371Z,654.00
2023-04-15T12:09:04.381Z,651.00
2023-04-15T12:10:04.370Z,657.00
2023-04-15T12:11:04.348Z,656.00
2023-04-15T12:12:04.359Z,652.00
2023-04-15T12:13:04.363Z,653.00
2023-04-15T12:14:04.468Z,656.00
2023-04-15T12:15:04.359Z,656.00
2023-04-15T12:16:04.401Z,655.00
2023-04-15T12:17:04.300Z,657.00
2023-04-15T12:18:05.441Z,658.00
2023-04-15T12:19:04.324Z,658.00
2023-04-15T12:20:04.352Z,660.00
2023-04-15T12:21:04.304Z,656.00
2023-04-15T12:22:04.287Z,656.00
2023-04-15T12:23:04.287Z,658.00
2023-04-15T12:24:04.504Z,661.00
2023-04-15T12:25:04.264Z,656.00
2023-04-15T12:26:04.282Z,658.00
2023-04-15T12:27:04.246Z,656.00
2023-04-15T12:28:04.263Z,659.00
2023-04-15T12:29:04.246Z,657.00